Voyager Of The Seas — C6SE5 — position and weather

sailwx.info

Track history (hours):
 
Tides and Currents Weather Stations Pressure Air Temp Water Temp Dewpoint Dewpoint Depression Visibility Wind Speed Wind Dir Waves Ship Positions

Voyager Of The Seas

Operator: Royal Caribbean Cruises Ltd

Last reported at 2015-Jun-19 12:15 UTC. Time now 2015-Jul-05 17:27 UTC.
Position N 22°41' E 116°42'.
Warning: this ship's position is 16 days out of date.

Type: Passenger vessel. MMSI: 311317000.

Date/timePositionNaut miles runAvg speedWind from/ knotsBaromVisibWave heightAir tempDewpointWater temp
2015-Jun-19 12:15N 22°41' E 116°42'2119.4
2015-Jun-19 11:09N 22°32' E 116°21'11019.7
2015-Jun-19 05:32N 22°13' E 114°23'1111.3
2015-Jun-19 04:33N 22°18' E 114°13'0 0.3
2015-Jun-19 03:32N 22°18' E 114°13'0 0.0
2015-Jun-19 02:32N 22°18' E 114°13'0 0.0
2015-Jun-19 01:32N 22°18' E 114°13'0 0.0
2015-Jun-19 00:32N 22°18' E 114°13'0 0.0
2015-Jun-18 23:32N 22°18' E 114°13'0 0.0
2015-Jun-18 22:32N 22°18' E 114°13'0 0.0
2015-Jun-18 21:32N 22°18' E 114°13'3 3.2
2015-Jun-18 20:33N 22°16' E 114°15'18220.2
2015-Jun-18 11:33N 23°05' E 117°26'2120.8
2015-Jun-18 10:33N 23°15' E 117°45'2220.9
2015-Jun-18 09:30N 23°29' E 118°04'2120.5
2015-Jun-18 08:27N 23°43' E 118°21'1920.5
2015-Jun-18 07:31N 23°55' E 118°38'2020.9
2015-Jun-18 06:33N 24°09' E 118°54'2120.6
2015-Jun-18 05:33N 24°22' E 119°11'78919.1
2015-Jun-16 12:17N 33°39' E 129°51'1419.5
2015-Jun-16 11:33N 33°44' E 130°07'1515.0
2015-Jun-16 10:33N 33°37' E 130°23'1 1.3
2015-Jun-16 09:32N 33°37' E 130°24'0 0.0
2015-Jun-16 08:32N 33°37' E 130°24'0 0.0
2015-Jun-16 07:32N 33°37' E 130°24'0 0.0
2015-Jun-16 06:32N 33°37' E 130°24'0 0.0
2015-Jun-16 05:32N 33°37' E 130°24'0 0.0
2015-Jun-16 04:32N 33°37' E 130°24'0 0.0
2015-Jun-16 03:32N 33°37' E 130°24'0 0.0
2015-Jun-16 02:32N 33°37' E 130°24'0 0.1
2015-Jun-16 01:32N 33°37' E 130°24'0 0.0
2015-Jun-16 00:32N 33°37' E 130°24'5 5.5
2015-Jun-15 23:33N 33°39' E 130°18'1111.1
2015-Jun-15 22:33N 33°45' E 130°07'1413.8
2015-Jun-15 21:33N 33°40' E 129°51'41817.4
2015-Jun-14 21:29N 37°38' E 122°49'4221.0
2015-Jun-14 19:30N 38°02' E 122°06'2221.9
2015-Jun-14 18:29N 38°14' E 121°42'2021.8
2015-Jun-14 17:33N 38°21' E 121°18'4321.2
2015-Jun-14 15:32N 38°36' E 120°27'2120.9
2015-Jun-14 14:31N 38°39' E 119°60'8421.1
2015-Jun-14 10:32N 38°51' E 118°13'1515.4
2015-Jun-14 09:33N 38°57' E 117°56'5 3.8
2015-Jun-14 08:09N 38°59' E 117°49'0 0.0
2015-Jun-14 07:27N 38°59' E 117°49'0 0.1
2015-Jun-14 06:33N 38°59' E 117°49'0 0.0
2015-Jun-14 05:27N 38°59' E 117°49'0 0.0
2015-Jun-14 04:33N 38°59' E 117°49'0 0.0
2015-Jun-14 03:27N 38°59' E 117°49'0 0.0
2015-Jun-14 02:21N 38°59' E 117°49'0 0.0
2015-Jun-14 01:21N 38°59' E 117°49'0 0.0
2015-Jun-14 00:33N 38°59' E 117°49'0 0.0
2015-Jun-13 23:27N 38°59' E 117°49'0 0.0
2015-Jun-13 22:27N 38°59' E 117°49'1 1.3
2015-Jun-13 21:33N 38°58' E 117°50'1712.8
2015-Jun-13 20:15N 38°54' E 118°11'13613.9
2015-Jun-13 10:29N 38°32' E 121°03'1415.3
2015-Jun-13 09:33N 38°26' E 121°19'1715.5
2015-Jun-13 08:27N 38°17' E 121°38'1415.7
2015-Jun-13 07:33N 38°11' E 121°54'1616.0
2015-Jun-13 06:33N 38°04' E 122°13'1615.9
2015-Jun-13 05:34N 37°58' E 122°31'1515.4
2015-Jun-13 04:34N 37°51' E 122°48'1515.4
2015-Jun-13 03:33N 37°45' E 123°06'1515.4
2015-Jun-13 02:33N 37°39' E 123°24'1515.0
2015-Jun-13 01:33N 37°33' E 123°42'1714.9
2015-Jun-13 00:23N 37°27' E 124°02'2614.3
2015-Jun-12 22:33N 37°17' E 124°32'1514.7
2015-Jun-12 21:33N 37°11' E 124°49'2014.8
2015-Jun-12 20:13N 37°03' E 125°12'59 4.9
2015-Jun-12 08:15N 37°14' E 126°25'2311.7
2015-Jun-12 06:20N 36°56' E 126°07'8 9.3
2015-Jun-12 05:30N 36°49' E 126°03'20 8.5
2015-Jun-12 03:05N 36°31' E 125°51'25 8.9
2015-Jun-12 00:18N 36°10' E 125°34'189 4.5
2015-Jun-10 06:16N 35°04' E 129°11'0 0.3
2015-Jun-10 05:33N 35°04' E 129°11'5 5.0
2015-Jun-10 04:33N 35°05' E 129°05'1 1.0
2015-Jun-10 03:16N 35°06' E 129°05'0 0.0
2015-Jun-10 02:28N 35°06' E 129°05'0 0.0
2015-Jun-10 01:07N 35°06' E 129°05'0 0.0
2015-Jun-10 00:28N 35°06' E 129°05'0 0.0
2015-Jun-09 23:31N 35°06' E 129°05'3 3.1
2015-Jun-09 22:33N 35°04' E 129°08'  
Track history (hours):
 
Tides and Currents Weather Stations Pressure Air Temp Water Temp Dewpoint Dewpoint Depression Visibility Wind Speed Wind Dir Waves Ship Positions

Voyager Of The Seas

Operator: Royal Caribbean Cruises Ltd

Last reported at 2015-Jun-19 12:15 UTC. Time now 2015-Jul-05 17:27 UTC.
Position N 22°41' E 116°42'.
Warning: this ship's position is 16 days out of date.

Type: Passenger vessel. MMSI: 311317000.

Date/timePositionNaut miles runAvg speedWind from/ knotsBaromVisibWave heightAir tempDewpointWater temp
2015-Jun-19 12:15N 22°41' E 116°42'2119.4
2015-Jun-19 11:09N 22°32' E 116°21'11019.7
2015-Jun-19 05:32N 22°13' E 114°23'1111.3
2015-Jun-19 04:33N 22°18' E 114°13'0 0.3
2015-Jun-19 03:32N 22°18' E 114°13'0 0.0
2015-Jun-19 02:32N 22°18' E 114°13'0 0.0
2015-Jun-19 01:32N 22°18' E 114°13'0 0.0
2015-Jun-19 00:32N 22°18' E 114°13'0 0.0
2015-Jun-18 23:32N 22°18' E 114°13'0 0.0
2015-Jun-18 22:32N 22°18' E 114°13'0 0.0
2015-Jun-18 21:32N 22°18' E 114°13'3 3.2
2015-Jun-18 20:33N 22°16' E 114°15'18220.2
2015-Jun-18 11:33N 23°05' E 117°26'2120.8
2015-Jun-18 10:33N 23°15' E 117°45'2220.9
2015-Jun-18 09:30N 23°29' E 118°04'2120.5
2015-Jun-18 08:27N 23°43' E 118°21'1920.5
2015-Jun-18 07:31N 23°55' E 118°38'2020.9
2015-Jun-18 06:33N 24°09' E 118°54'2120.6
2015-Jun-18 05:33N 24°22' E 119°11'78919.1
2015-Jun-16 12:17N 33°39' E 129°51'1419.5
2015-Jun-16 11:33N 33°44' E 130°07'1515.0
2015-Jun-16 10:33N 33°37' E 130°23'1 1.3
2015-Jun-16 09:32N 33°37' E 130°24'0 0.0
2015-Jun-16 08:32N 33°37' E 130°24'0 0.0
2015-Jun-16 07:32N 33°37' E 130°24'0 0.0
2015-Jun-16 06:32N 33°37' E 130°24'0 0.0
2015-Jun-16 05:32N 33°37' E 130°24'0 0.0
2015-Jun-16 04:32N 33°37' E 130°24'0 0.0
2015-Jun-16 03:32N 33°37' E 130°24'0 0.0
2015-Jun-16 02:32N 33°37' E 130°24'0 0.1
2015-Jun-16 01:32N 33°37' E 130°24'0 0.0
2015-Jun-16 00:32N 33°37' E 130°24'5 5.5
2015-Jun-15 23:33N 33°39' E 130°18'1111.1
2015-Jun-15 22:33N 33°45' E 130°07'1413.8
2015-Jun-15 21:33N 33°40' E 129°51'41817.4
2015-Jun-14 21:29N 37°38' E 122°49'4221.0
2015-Jun-14 19:30N 38°02' E 122°06'2221.9
2015-Jun-14 18:29N 38°14' E 121°42'2021.8
2015-Jun-14 17:33N 38°21' E 121°18'4321.2
2015-Jun-14 15:32N 38°36' E 120°27'2120.9
2015-Jun-14 14:31N 38°39' E 119°60'8421.1
2015-Jun-14 10:32N 38°51' E 118°13'1515.4
2015-Jun-14 09:33N 38°57' E 117°56'5 3.8
2015-Jun-14 08:09N 38°59' E 117°49'0 0.0
2015-Jun-14 07:27N 38°59' E 117°49'0 0.1
2015-Jun-14 06:33N 38°59' E 117°49'0 0.0
2015-Jun-14 05:27N 38°59' E 117°49'0 0.0
2015-Jun-14 04:33N 38°59' E 117°49'0 0.0
2015-Jun-14 03:27N 38°59' E 117°49'0 0.0
2015-Jun-14 02:21N 38°59' E 117°49'0 0.0
2015-Jun-14 01:21N 38°59' E 117°49'0 0.0
2015-Jun-14 00:33N 38°59' E 117°49'0 0.0
2015-Jun-13 23:27N 38°59' E 117°49'0 0.0
2015-Jun-13 22:27N 38°59' E 117°49'1 1.3
2015-Jun-13 21:33N 38°58' E 117°50'1712.8
2015-Jun-13 20:15N 38°54' E 118°11'13613.9
2015-Jun-13 10:29N 38°32' E 121°03'1415.3
2015-Jun-13 09:33N 38°26' E 121°19'1715.5
2015-Jun-13 08:27N 38°17' E 121°38'1415.7
2015-Jun-13 07:33N 38°11' E 121°54'1616.0
2015-Jun-13 06:33N 38°04' E 122°13'1615.9
2015-Jun-13 05:34N 37°58' E 122°31'1515.4
2015-Jun-13 04:34N 37°51' E 122°48'1515.4
2015-Jun-13 03:33N 37°45' E 123°06'1515.4
2015-Jun-13 02:33N 37°39' E 123°24'1515.0
2015-Jun-13 01:33N 37°33' E 123°42'1714.9
2015-Jun-13 00:23N 37°27' E 124°02'2614.3
2015-Jun-12 22:33N 37°17' E 124°32'1514.7
2015-Jun-12 21:33N 37°11' E 124°49'2014.8
2015-Jun-12 20:13N 37°03' E 125°12'59 4.9
2015-Jun-12 08:15N 37°14' E 126°25'2311.7
2015-Jun-12 06:20N 36°56' E 126°07'8 9.3
2015-Jun-12 05:30N 36°49' E 126°03'20 8.5
2015-Jun-12 03:05N 36°31' E 125°51'25 8.9
2015-Jun-12 00:18N 36°10' E 125°34'189 4.5
2015-Jun-10 06:16N 35°04' E 129°11'0 0.3
2015-Jun-10 05:33N 35°04' E 129°11'5 5.0
2015-Jun-10 04:33N 35°05' E 129°05'1 1.0
2015-Jun-10 03:16N 35°06' E 129°05'0 0.0
2015-Jun-10 02:28N 35°06' E 129°05'0 0.0
2015-Jun-10 01:07N 35°06' E 129°05'0 0.0
2015-Jun-10 00:28N 35°06' E 129°05'0 0.0
2015-Jun-09 23:31N 35°06' E 129°05'3 3.1
2015-Jun-09 22:33N 35°04' E 129°08'  

Dump ship's entire track history